• Join FlightAware (Why Join?)
  • Login
  • US Flag 
11:01AM EDT


 

Airport Tracker/Info


-or-


 

Live Flight TrackerFlight Track Log ✈ N589H ✈ 28-Mar-2014 ✈ MYNN / NAS - KPIE

Flight Track Log - Related Links

Times and Time Zones

All times are in EDT time to prevent confusion due to time zone crossing. See the N589H flight status page for this flight to view local times or setup timezone preferences in your user account.

Time Position Orientation Groundspeed Altitude Reporting Facility
EDT Latitude Longitude Course Direction KTS MPH feet Rate Location/Type
02:15PM 24.9881 -77.4664 201° Southwest 205 236 3,500  Level Miami Center
02:16PM 24.9983 -77.5147 283° West 107 123 5,800 2,280 Climbing Miami Center
02:17PM 25.0525 -77.5469 332° Northwest 122 140 8,100 2,340 Climbing Miami Center
02:18PM 25.0942 -77.5956 313° West 165 190 10,500 2,520 Climbing Miami Center
02:19PM 25.2765 -77.8763 303° West  Level Estimated
02:19PM 25.1042 -77.6553 280° West 193 222 13,200  Level Miami Center
02:20PM 25.1250 -77.7058 294° West 188 216 15,200 1,500 Climbing Miami Center
02:21PM 25.1494 -77.7703 293° West 202 232 16,200 1,140 Climbing Miami Center
02:22PM 25.1783 -77.8417 294° West 233 268 17,500 1,260 Climbing Miami Center
02:23PM 25.2050 -77.9131 292° West 250 288 18,800 1,320 Climbing Miami Center
02:24PM 25.2339 -77.9844 294° West 256 295 20,200 1,380 Climbing Miami Center
02:25PM 25.2603 -78.0561 292° West 256 295 21,600 900 Climbing Miami Center
02:26PM 25.2850 -78.1275 291° West 251 289 22,000 180 Climbing Miami Center
02:27PM 25.3114 -78.1897 295° West 263 303 22,000  Level Miami Center
02:28PM 25.3419 -78.2753 292° West 284 327 22,000  Level Miami Center
02:29PM 25.3747 -78.3608 293° West 297 342 22,000  Level Miami Center
02:30PM 25.4178 -78.4442 300° West 297 342 22,000  Level Miami Center
02:31PM 25.4503 -78.5250 294° West 297 342 22,000  Level Miami Center
02:32PM 25.4931 -78.6086 300° West 303 349 22,000  Level Miami Center
02:33PM 25.5381 -78.6897 302° West 308 354 22,000  Level Miami Center
02:34PM 25.5767 -78.7756 297° West 308 354 22,000  Level Miami Center
02:35PM 25.6153 -78.8592 297° West 308 354 22,000  Level Miami Center
02:36PM 25.6600 -78.9406 301° West 308 354 22,000  Level Miami Center
02:37PM 25.7008 -79.0244 298° West 308 354 22,000  Level Miami Center
02:38PM 25.7414 -79.1081 298° West 308 354 22,000  Level Miami Center
02:39PM 25.7839 -79.1897 300° West 308 354 22,000  Level Miami Center
02:40PM 25.8200 -79.2758 295° West 303 349 22,000  Level Miami Center
02:41PM 25.8586 -79.3503 300° West 309 356 22,000  Level Miami Center
02:42PM 25.9028 -79.4414 298° West 304 350 22,000  Level Miami Center
02:43PM 25.9392 -79.5161 298° West 310 357 22,000  Level Miami Center
02:44PM 25.9856 -79.6072 300° West 310 357 22,000  Level Miami Center
02:45PM 26.0236 -79.6914 297° West 304 350 22,000  Level Miami Center
02:46PM 26.0639 -79.7733 299° West 304 350 22,000  Level Miami Center
02:47PM 26.0958 -79.8411 298° West 304 350 22,000  Level Miami Center
02:48PM 26.1439 -79.9394 299° West 304 350 22,000  Level Miami Center
02:49PM 26.1839 -80.0239 298° West 304 350 22,000  Level Miami Center
02:50PM 26.2258 -80.1083 299° West 304 350 22,000  Level Miami Center
02:51PM 26.2636 -80.1928 297° West 304 350 22,000  Level Miami Center
02:52PM 26.3036 -80.2797 297° West 304 350 22,000  Level Miami Center
02:53PM 26.3433 -80.3619 298° West 304 350 22,000  Level Miami Center
02:54PM 26.3831 -80.4467 298° West 304 350 22,000  Level Miami Center
02:55PM 26.4228 -80.5314 298° West 304 350 22,000  Level Miami Center
02:56PM 26.4583 -80.6067 298° West 304 350 22,000  Level Miami Center
02:57PM 26.5019 -80.6961 299° West 304 350 22,000 -300 Level Miami Center
02:58PM 26.5356 -80.7647 299° West 304 350 21,500 -660 Descending Miami Center
02:59PM 26.5831 -80.8661 298° West 309 356 20,700 -780 Descending Miami Center
03:00PM 26.6225 -80.9511 297° West 309 356 20,000 -720 Descending Miami Center
03:01PM 26.6617 -81.0361 297° West 309 356 19,300 -660 Descending Miami Center
03:02PM 26.6992 -81.1142 298° West 309 356 18,700 -660 Descending Miami Center
03:03PM 26.7406 -81.1994 299° West 309 356 18,000 -360 Descending Miami Center
03:04PM 26.7836 -81.2964 296° West 309 356 18,000  Level Miami Center
03:05PM 26.8228 -81.3817 297° West 309 356 18,000  Level Miami Center
03:06PM 26.8808 -81.4536 312° West 309 356 18,000  Level Miami Center
03:07PM 26.9414 -81.5258 313° West 314 361 18,000  Level Miami Center
03:08PM 27.0031 -81.6192 307° West 314 361 18,000  Level Miami Center
03:09PM 27.0464 -81.6956 303° West 319 367 18,000  Level Miami Center
03:10PM 27.0981 -81.7678 309° West 313 360 18,000 -360 Level Miami Center
03:11PM 27.1628 -81.8311 319° Northwest 301 346 17,300 -1,320 Descending Miami Center
03:12PM 27.2272 -81.8992 317° Northwest 314 361 15,400 -1,740 Descending Miami Center
03:13PM 27.2897 -81.9650 317° Northwest 314 361 13,900 -1,620 Descending Miami Center
03:14PM 27.3522 -82.0286 318° Northwest 309 356 12,200 1,980 Descending Miami Center
03:15PM 27.4083 -82.0897 316° Northwest 297 342 18,000 -2,160 Climbing Miami Center
03:16PM 27.4647 -82.1483 317° Northwest 286 329 7,900 -5,100 Descending Miami Center
03:17PM 27.5167 -82.2114 313° West 281 323 7,900 -600 Level Miami Center
03:18PM 27.5511 -82.2881 297° West 271 312 6,800 -1,560 Descending Miami Center
03:19PM 27.5858 -82.3647 297° West 276 318 4,900 -1,500 Descending Miami Center
03:20PM 27.6225 -82.4414 298° West 276 318 3,900 -540 Descending Miami Center
03:21PM 27.6572 -82.5181 297° West 276 318 3,900  Level Miami Center
03:22PM 27.6958 -82.5950 300° West 276 318 3,900  Level Miami Center
03:23PM 27.7303 -82.6717 297° West 276 318 3,900 -60 Level Miami Center
03:24PM 27.7731 -82.7489 302° West 276 318 3,800 -540 Descending Miami Center
03:25PM 27.8500 -82.7833 338° Northwest 261 300 2,900 -660 Descending Tampa TRACON
03:26PM 27.9167 -82.8000 348° North 231 266 2,500 -540 Descending Tampa TRACON
03:27PM 27.9667 -82.7833 16° North 203 234 1,900 -600 Descending Tampa TRACON
03:28PM 27.9833 -82.7500 60° Northeast 150 173 1,400 -600 Descending Tampa TRACON
03:29PM 27.9667 -82.7000 111° Southeast 141 162 800 -600 Descending Tampa TRACON
03:31PM 27.9100 -82.6875 99° East  Level Estimated
03:38PM 27.9100 -82.6875 99° East  Level Estimated
03:39PM 27.9100 -82.6875 160° South  Level Estimated